Time;durP1;ratioP1;P1;durP2;ratioP2;P2;SDS_P1;SDS_P2;PMS_P1;PMS_P2;Temp;Humidity;BMP_temperature;BMP_pressure;BME280_temperature;BME280_humidity;BME280_pressure;Samples;Min_cycle;Max_cycle;Signal;HPM_P1;HPM_P2
2022/09/27 00:01:29;;;;;;;19.70;17.05;;;;;;;14.41;100.00;63487.28;5045515;28;20224;-79
2022/09/27 00:03:55;;;;;;;21.88;15.45;;;;;;;14.33;100.00;63476.41;5045679;28;20553;-80
2022/09/27 00:06:26;;;;;;;19.85;15.23;;;;;;;14.16;100.00;63461.28;5046697;28;20369;-80
2022/09/27 00:08:53;;;;;;;21.17;16.30;;;;;;;14.08;100.00;63455.03;5044455;28;20233;-79
2022/09/27 00:11:26;;;;;;;23.08;16.90;;;;;;;13.96;100.00;63440.00;5044613;28;20268;-79
2022/09/27 00:13:54;;;;;;;21.58;16.15;;;;;;;14.22;100.00;63467.50;5043829;28;20744;-80
2022/09/27 00:16:21;;;;;;;22.15;16.00;;;;;;;14.13;100.00;63453.06;5036994;28;20210;-79
2022/09/27 00:18:48;;;;;;;22.27;16.17;;;;;;;14.14;100.00;63454.09;5038628;28;20254;-80
2022/09/27 00:21:15;;;;;;;20.20;15.18;;;;;;;14.04;100.00;63443.72;5043196;28;20220;-79
2022/09/27 00:23:44;;;;;;;20.95;15.13;;;;;;;13.99;100.00;63443.66;5043610;28;20226;-80
2022/09/27 00:26:13;;;;;;;16.83;14.82;;;;;;;13.99;100.00;63445.69;5044247;28;20210;-78
2022/09/27 00:28:40;;;;;;;19.55;15.25;;;;;;;14.18;100.00;63458.25;5044439;28;20217;-79
2022/09/27 00:31:19;;;;;;;21.60;16.10;;;;;;;14.25;100.00;63470.13;5046248;28;20297;-81
2022/09/27 00:33:46;;;;;;;20.05;15.40;;;;;;;14.32;100.00;63474.84;5045693;28;20276;-80
2022/09/27 00:36:13;;;;;;;19.08;15.52;;;;;;;14.25;100.00;63472.69;5044538;28;20205;-80
2022/09/27 00:38:40;;;;;;;16.40;14.52;;;;;;;14.21;100.00;63469.03;5045050;28;20272;-80
2022/09/27 00:41:13;;;;;;;20.55;14.57;;;;;;;14.18;100.00;63460.28;5045883;28;20202;-80
2022/09/27 00:43:47;;;;;;;17.88;14.18;;;;;;;14.13;100.00;63455.09;5047164;28;20270;-79
2022/09/27 00:46:19;;;;;;;16.23;12.63;;;;;;;14.20;100.00;63460.34;5045307;28;20194;-79
2022/09/27 00:48:47;;;;;;;16.00;13.30;;;;;;;14.22;100.00;63464.44;5043344;28;20264;-79
2022/09/27 00:51:15;;;;;;;16.42;12.65;;;;;;;14.17;100.00;63459.75;5029500;28;20233;-80
2022/09/27 00:53:46;;;;;;;17.63;11.82;;;;;;;14.18;100.00;63467.97;5043043;28;20280;-78
2022/09/27 00:56:19;;;;;;;21.08;11.73;;;;;;;14.18;100.00;63457.72;5044413;28;20244;-80
2022/09/27 00:58:50;;;;;;;12.80;11.50;;;;;;;14.18;100.00;63463.38;5026505;28;20234;-78
2022/09/27 01:01:17;;;;;;;13.52;11.38;;;;;;;14.17;100.00;63462.31;5037176;28;20198;-79
2022/09/27 01:03:49;;;;;;;20.85;12.25;;;;;;;14.17;100.00;63466.94;5042599;28;20510;-78
2022/09/27 01:06:18;;;;;;;15.90;11.88;;;;;;;14.13;100.00;63458.19;5044254;28;20385;-78
2022/09/27 01:08:45;;;;;;;12.75;11.32;;;;;;;14.16;100.00;63463.84;5044909;28;20448;-79
2022/09/27 01:11:24;;;;;;;15.98;12.13;;;;;;;14.13;100.00;63458.19;5047806;28;20236;-79
2022/09/27 01:14:08;;;;;;;47.63;14.10;;;;;;;14.16;100.00;63458.75;5046786;28;20221;-79
2022/09/27 01:16:46;;;;;;;14.18;11.95;;;;;;;14.15;100.00;63457.19;5029170;28;20187;-77
2022/09/27 01:19:28;;;;;;;17.63;12.23;;;;;;;14.10;100.00;63452.50;5032768;28;20194;-79
2022/09/27 01:22:02;;;;;;;14.75;12.73;;;;;;;14.13;100.00;63455.09;5050357;28;20272;-79
2022/09/27 01:24:51;;;;;;;14.10;12.10;;;;;;;14.15;100.00;63459.75;5048598;28;20236;-78
2022/09/27 01:28:04;;;;;;;12.57;11.27;;;;;;;14.02;100.00;63443.69;5046566;28;20272;-80
2022/09/27 01:30:43;;;;;;;12.35;11.13;;;;;;;13.90;100.00;63431.75;5049500;28;20236;-78
2022/09/27 01:33:32;;;;;;;14.48;12.20;;;;;;;13.91;100.00;63438.41;5044384;28;20217;-78
2022/09/27 01:36:13;;;;;;;16.27;11.70;;;;;;;13.94;100.00;63436.41;5045912;28;20191;-78
2022/09/27 01:38:49;;;;;;;15.32;12.18;;;;;;;13.97;100.00;63441.03;5050073;28;20222;-77
2022/09/27 01:41:28;;;;;;;21.75;12.20;;;;;;;14.00;100.00;63444.16;5043733;28;20216;-78
2022/09/27 01:44:00;;;;;;;13.70;11.85;;;;;;;14.07;100.00;63446.31;5035382;28;20210;-79
2022/09/27 01:46:33;;;;;;;15.52;11.77;;;;;;;14.17;100.00;63461.81;5049648;28;20194;-78
2022/09/27 01:49:06;;;;;;;18.27;12.95;;;;;;;14.09;100.00;63450.94;5046691;28;20198;-80
2022/09/27 01:51:39;;;;;;;15.85;13.07;;;;;;;14.06;100.00;63450.91;5045226;28;20264;-79
2022/09/27 01:54:09;;;;;;;14.68;13.10;;;;;;;14.04;100.00;63445.75;5044947;28;20403;-79
2022/09/27 01:56:43;;;;;;;21.10;13.15;;;;;;;14.07;100.00;63448.88;5048449;28;20256;-78
2022/09/27 01:59:14;;;;;;;13.07;11.77;;;;;;;14.06;100.00;63448.34;5046939;28;20205;-79
2022/09/27 02:01:45;;;;;;;12.40;11.10;;;;;;;13.99;100.00;63440.56;5046787;28;20198;-78
2022/09/27 02:04:15;;;;;;;19.05;11.48;;;;;;;13.96;100.00;63440.00;5036332;28;20240;-78
2022/09/27 02:06:48;;;;;;;14.65;10.57;;;;;;;13.96;100.00;63435.41;5047306;28;20236;-78
2022/09/27 02:09:18;;;;;;;14.85;11.27;;;;;;;13.83;100.00;63422.44;5047028;28;20475;-79
2022/09/27 02:11:51;;;;;;;17.90;12.32;;;;;;;13.81;100.00;63425.47;5047136;28;20217;-78
2022/09/27 02:14:22;;;;;;;13.93;12.45;;;;;;;13.87;100.00;63428.63;5046347;28;20198;-77
2022/09/27 02:16:53;;;;;;;20.40;13.13;;;;;;;13.90;100.00;63439.94;5048498;28;20224;-79
2022/09/27 02:19:32;;;;;;;16.00;13.40;;;;;;;13.97;100.00;63439.00;5045830;28;20244;-78
2022/09/27 02:22:07;;;;;;;17.88;12.75;;;;;;;13.96;100.00;63440.53;5044999;28;20418;-79
2022/09/27 02:24:39;;;;;;;16.13;13.25;;;;;;;13.89;100.00;63428.16;5045977;28;20205;-79
2022/09/27 02:27:13;;;;;;;18.92;11.98;;;;;;;13.84;100.00;63426.03;5040821;28;20289;-79
2022/09/27 02:29:49;;;;;;;16.65;11.73;;;;;;;13.87;100.00;63433.75;5046072;28;20324;-78
2022/09/27 02:32:17;;;;;;;21.58;12.73;;;;;;;13.89;100.00;63433.28;5047342;28;20328;-79
2022/09/27 02:34:46;;;;;;;17.10;11.35;;;;;;;13.93;100.00;63442.03;5046194;28;20202;-78
2022/09/27 02:37:13;;;;;;;12.77;10.05;;;;;;;14.00;100.00;63441.59;5045469;28;20541;-79
2022/09/27 02:39:41;;;;;;;10.48;9.32;;;;;;;14.08;100.00;63455.03;5042259;28;20446;-78
2022/09/27 02:42:08;;;;;;;9.23;8.32;;;;;;;14.11;100.00;63453.03;5045751;28;20218;-80
2022/09/27 02:44:34;;;;;;;9.15;8.25;;;;;;;14.16;100.00;63455.66;5045243;28;20248;-77
2022/09/27 02:47:29;;;;;;;7.85;6.95;;;;;;;14.23;100.00;63470.59;5043203;28;20265;-78
2022/09/27 02:50:11;;;;;;;8.32;7.53;;;;;;;14.30;100.00;63478.41;5036537;28;20255;-78
2022/09/27 02:52:50;;;;;;;12.15;8.07;;;;;;;14.32;100.00;63474.84;5039177;28;20233;-79
2022/09/27 02:55:24;;;;;;;9.45;7.72;;;;;;;14.31;100.00;63476.38;5044084;28;20206;-79
2022/09/27 02:58:04;;;;;;;16.83;12.73;;;;;;;14.18;100.00;63460.81;5045563;28;20243;-77
2022/09/27 03:00:41;;;;;;;22.20;14.82;;;;;;;14.06;100.00;63450.91;5047899;28;20198;-78
2022/09/27 03:03:15;;;;;;;17.10;14.23;;;;;;;14.12;100.00;63456.59;5044972;28;20210;-79
2022/09/27 03:05:47;;;;;;;19.58;14.50;;;;;;;13.97;100.00;63443.59;5046640;28;20208;-79
2022/09/27 03:08:14;;;;;;;16.23;14.50;;;;;;;13.86;100.00;63435.78;5042197;28;20234;-80
2022/09/27 03:10:41;;;;;;;31.75;15.88;;;;;;;13.70;100.00;63408.94;5030797;28;20271;-77
2022/09/27 03:13:08;;;;;;;37.17;17.75;;;;;;;13.60;100.00;63400.59;5047627;28;20522;-77
2022/09/27 03:15:35;;;;;;;39.78;16.98;;;;;;;13.73;100.00;63411.53;5043625;28;20206;-77
2022/09/27 03:18:02;;;;;;;22.63;16.55;;;;;;;13.80;100.00;63418.81;5044866;28;20225;-78
2022/09/27 03:20:30;;;;;;;17.10;14.90;;;;;;;13.84;100.00;63428.06;5032197;28;20237;-79
2022/09/27 03:22:57;;;;;;;23.05;17.13;;;;;;;13.89;100.00;63430.72;5045331;28;20218;-79
2022/09/27 03:25:24;;;;;;;18.77;14.63;;;;;;;13.91;100.00;63435.84;5045237;28;20248;-78
2022/09/27 03:27:50;;;;;;;18.15;14.40;;;;;;;13.83;100.00;63425.00;5046310;28;20222;-78
2022/09/27 03:30:18;;;;;;;21.45;15.52;;;;;;;13.85;100.00;63427.06;5043183;28;20201;-78
2022/09/27 03:32:45;;;;;;;17.10;14.75;;;;;;;13.85;100.00;63431.66;5044670;28;20403;-78
2022/09/27 03:35:13;;;;;;;21.20;15.18;;;;;;;13.89;100.00;63433.78;5044690;28;20202;-78
2022/09/27 03:37:41;;;;;;;18.27;14.95;;;;;;;13.83;100.00;63427.03;5043367;28;20225;-77
2022/09/27 03:40:10;;;;;;;14.02;12.57;;;;;;;13.82;100.00;63423.44;5044026;28;20221;-77
2022/09/27 03:42:38;;;;;;;14.18;11.73;;;;;;;13.84;100.00;63428.06;5042387;28;20389;-78
2022/09/27 03:45:05;;;;;;;16.02;12.95;;;;;;;13.96;100.00;63437.97;5044615;28;20210;-76
2022/09/27 03:47:32;;;;;;;17.35;12.88;;;;;;;14.02;100.00;63446.75;5043956;28;20249;-77
2022/09/27 03:49:59;;;;;;;16.08;11.93;;;;;;;14.00;100.00;63444.16;5037747;28;20209;-77
2022/09/27 03:52:26;;;;;;;12.95;11.63;;;;;;;14.07;100.00;63451.41;5029660;28;20237;-78
2022/09/27 03:54:54;;;;;;;13.75;11.38;;;;;;;14.17;100.00;63459.75;5043163;28;20214;-78
2022/09/27 03:57:21;;;;;;;11.52;10.30;;;;;;;14.18;100.00;63468.50;5044244;28;20387;-78
2022/09/27 03:59:47;;;;;;;14.57;10.65;;;;;;;14.19;100.00;63461.84;5043901;28;20194;-78
2022/09/27 04:02:14;;;;;;;11.10;9.98;;;;;;;14.16;100.00;63458.75;5041416;28;20268;-78
2022/09/27 04:04:41;;;;;;;14.43;12.13;;;;;;;14.02;100.00;63446.75;5046327;28;20198;-77
2022/09/27 04:07:08;;;;;;;15.23;12.68;;;;;;;13.85;100.00;63421.97;5045147;28;20479;-79
2022/09/27 04:09:36;;;;;;;13.43;11.35;;;;;;;13.90;100.00;63431.75;5041008;28;20308;-77
2022/09/27 04:12:05;;;;;;;16.00;12.13;;;;;;;13.88;100.00;63427.63;5042923;28;20301;-78
2022/09/27 04:14:32;;;;;;;13.50;11.30;;;;;;;14.02;100.00;63446.75;5042973;28;20198;-78
2022/09/27 04:16:59;;;;;;;14.50;11.20;;;;;;;14.15;100.00;63457.19;5043812;28;20530;-78
2022/09/27 04:19:26;;;;;;;14.65;11.55;;;;;;;14.21;100.00;63463.94;5042959;28;20205;-78
2022/09/27 04:21:52;;;;;;;11.65;10.02;;;;;;;14.27;100.00;63469.66;5046053;28;20280;-80
2022/09/27 04:24:19;;;;;;;15.55;11.00;;;;;;;14.38;100.00;63478.50;5043848;28;20212;-79
2022/09/27 04:26:48;;;;;;;14.93;11.05;;;;;;;14.42;100.00;63487.78;5043057;28;20236;-79
2022/09/27 04:29:16;;;;;;;13.73;11.32;;;;;;;14.41;100.00;63484.19;5040357;28;20403;-79
2022/09/27 04:31:44;;;;;;;11.95;10.70;;;;;;;14.48;100.00;63494.03;5044871;28;20268;-79
2022/09/27 04:34:11;;;;;;;14.15;10.02;;;;;;;14.54;100.00;63500.78;5042441;28;20265;-79
2022/09/27 04:36:37;;;;;;;10.55;9.20;;;;;;;14.53;100.00;63499.22;5044173;28;20202;-78
2022/09/27 04:39:06;;;;;;;12.25;8.65;;;;;;;14.62;100.00;63506.00;5033136;28;20241;-78
2022/09/27 04:41:34;;;;;;;9.70;8.57;;;;;;;14.62;100.00;63506.00;5031005;28;20214;-79
2022/09/27 04:44:01;;;;;;;11.27;8.88;;;;;;;14.64;100.00;63511.16;5045816;28;20205;-79
2022/09/27 04:46:30;;;;;;;11.35;10.23;;;;;;;14.69;100.00;63518.91;5044012;28;20209;-78
2022/09/27 04:48:58;;;;;;;13.10;10.80;;;;;;;14.40;100.00;63486.25;5044171;28;20236;-78
2022/09/27 04:51:25;;;;;;;15.93;13.00;;;;;;;14.21;100.00;63463.41;5046141;28;20209;-79
2022/09/27 04:53:52;;;;;;;16.95;14.52;;;;;;;14.03;100.00;63447.78;5044832;28;20366;-80
2022/09/27 04:56:19;;;;;;;24.35;16.00;;;;;;;14.07;100.00;63457.06;5042815;28;20557;-77
2022/09/27 04:58:46;;;;;;;20.70;14.77;;;;;;;14.19;100.00;63461.31;5044969;28;20230;-79
2022/09/27 05:01:13;;;;;;;21.33;15.95;;;;;;;14.15;100.00;63462.81;5042208;28;20269;-77
2022/09/27 05:03:41;;;;;;;23.40;16.00;;;;;;;14.26;100.00;63474.25;5039917;28;20222;-79
2022/09/27 05:06:08;;;;;;;26.98;16.67;;;;;;;14.21;100.00;63463.41;5043795;28;20224;-79
2022/09/27 05:08:35;;;;;;;19.67;15.55;;;;;;;14.20;100.00;63462.38;5040243;28;20276;-78
2022/09/27 05:11:01;;;;;;;19.40;13.85;;;;;;;14.28;100.00;63473.78;5039321;28;20388;-78
2022/09/27 05:13:28;;;;;;;16.73;13.70;;;;;;;14.40;100.00;63483.16;5031565;28;20229;-80
2022/09/27 05:15:55;;;;;;;18.30;13.23;;;;;;;14.37;100.00;63483.13;5036851;28;20210;-79
2022/09/27 05:18:22;;;;;;;20.95;14.20;;;;;;;14.52;100.00;63500.75;5034595;28;20237;-79
2022/09/27 05:20:52;;;;;;;19.55;14.50;;;;;;;14.53;100.00;63499.22;5040081;28;20198;-79
2022/09/27 05:23:19;;;;;;;19.23;14.45;;;;;;;14.61;100.00;63507.53;5039444;28;20249;-79
2022/09/27 05:25:46;;;;;;;18.60;14.60;;;;;;;14.55;100.00;63498.72;5033155;28;20300;-79
2022/09/27 05:28:12;;;;;;;23.02;14.95;;;;;;;14.60;100.00;63504.44;5035250;28;20225;-78
2022/09/27 05:30:39;;;;;;;19.45;15.10;;;;;;;14.62;100.00;63506.00;5032832;28;20483;-79
2022/09/27 05:33:06;;;;;;;20.75;15.75;;;;;;;14.61;100.00;63504.97;5034481;28;20473;-78
2022/09/27 05:35:34;;;;;;;20.08;15.48;;;;;;;14.72;100.00;63518.97;5036194;28;20242;-78
2022/09/27 05:38:03;;;;;;;22.17;15.27;;;;;;;14.70;100.00;63516.88;5030253;28;20249;-79
2022/09/27 05:40:30;;;;;;;19.55;16.27;;;;;;;14.70;100.00;63512.25;5038892;28;20198;-78
2022/09/27 05:42:57;;;;;;;22.05;16.63;;;;;;;14.68;100.00;63523.00;5039939;28;20213;-79
2022/09/27 05:45:25;;;;;;;22.25;17.52;;;;;;;14.75;100.00;63525.13;5042609;28;20209;-77
2022/09/27 05:47:55;;;;;;;22.75;17.25;;;;;;;14.82;100.00;63529.84;5043050;28;20417;-78
2022/09/27 05:50:23;;;;;;;20.67;16.23;;;;;;;14.87;100.00;63535.06;5042763;28;20206;-79
2022/09/27 05:52:50;;;;;;;22.65;15.57;;;;;;;14.96;100.00;63544.41;5043303;28;20428;-78
2022/09/27 05:55:19;;;;;;;18.55;13.55;;;;;;;15.08;100.00;63559.44;5044335;28;20224;-79
2022/09/27 05:57:56;;;;;;;12.10;10.80;;;;;;;15.07;100.00;63557.88;5047816;28;20221;-79
2022/09/27 06:00:24;;;;;;;16.90;11.32;;;;;;;15.02;100.00;63548.06;5050246;28;20236;-81
2022/09/27 06:02:56;;;;;;;15.35;10.73;;;;;;;15.15;100.00;63557.97;5045799;28;20231;-80
2022/09/27 06:05:24;;;;;;;11.02;9.60;;;;;;;15.19;100.00;63572.38;5047012;28;20209;-81
2022/09/27 06:07:51;;;;;;;10.18;9.07;;;;;;;15.16;100.00;63564.16;5050575;28;20227;-80
2022/09/27 06:10:20;;;;;;;14.73;12.93;;;;;;;15.22;100.00;63570.91;5045217;28;20201;-78
2022/09/27 06:12:46;;;;;;;15.93;14.02;;;;;;;15.13;100.00;63559.00;5046920;28;20237;-78
2022/09/27 06:15:14;;;;;;;17.50;13.40;;;;;;;14.85;100.00;63532.97;5047927;28;20241;-77
2022/09/27 06:17:41;;;;;;;19.67;14.48;;;;;;;14.85;100.00;63527.84;5044741;28;20224;-78
2022/09/27 06:20:09;;;;;;;17.52;13.30;;;;;;;15.00;100.00;63540.88;5044773;28;20197;-79
2022/09/27 06:22:36;;;;;;;15.23;11.02;;;;;;;15.11;100.00;63559.47;5045188;28;20271;-76
2022/09/27 06:25:04;;;;;;;16.27;12.65;;;;;;;15.21;100.00;63571.91;5049733;28;20206;-79
2022/09/27 06:27:32;;;;;;;19.15;15.52;;;;;;;15.06;100.00;63557.34;5046208;28;20407;-79
2022/09/27 06:29:59;;;;;;;17.70;15.55;;;;;;;15.26;100.00;63574.53;5048137;28;20506;-78
2022/09/27 06:32:27;;;;;;;17.42;15.07;;;;;;;15.39;100.00;63590.63;5049168;28;20233;-79
2022/09/27 06:34:53;;;;;;;18.35;14.35;;;;;;;15.49;100.00;63599.00;5048427;28;20202;-79
2022/09/27 06:37:27;;;;;;;16.58;12.45;;;;;;;15.55;100.00;63602.66;5044918;28;20230;-79
2022/09/27 06:40:07;;;;;;;14.82;12.73;;;;;;;15.66;100.00;63618.69;5048723;28;20215;-79
2022/09/27 06:45:41;;;;;;;15.85;12.98;;;;;;;15.59;100.00;63611.94;5044012;28;20208;-78
2022/09/27 06:48:11;;;;;;;14.48;11.60;;;;;;;15.57;100.00;63609.34;5047944;28;20217;-77
2022/09/27 06:50:39;;;;;;;12.50;11.18;;;;;;;15.45;100.00;63594.31;5046748;28;20244;-79
2022/09/27 06:53:08;;;;;;;13.70;11.35;;;;;;;15.32;100.00;63575.66;5046480;28;20344;-80
2022/09/27 06:55:35;;;;;;;16.67;12.13;;;;;;;15.38;100.00;63587.00;5048931;28;20228;-77
2022/09/27 07:00:50;;;;;;;23.42;18.17;;;;;;;15.46;100.00;63595.34;5032141;28;20307;-79
2022/09/27 07:03:17;;;;;;;21.92;17.00;;;;;;;15.51;100.00;63597.97;5045944;28;20217;-80
2022/09/27 07:05:54;;;;;;;24.67;18.13;;;;;;;15.34;100.00;63583.38;5045245;28;20224;-76
2022/09/27 07:08:21;;;;;;;29.95;19.33;;;;;;;15.24;100.00;63570.41;5044211;28;20425;-77
2022/09/27 07:10:48;;;;;;;32.05;19.40;;;;;;;15.17;100.00;63563.13;5045489;28;20610;-78
2022/09/27 07:13:17;;;;;;;26.77;19.60;;;;;;;15.19;100.00;63564.69;5046420;28;20225;-78
2022/09/27 07:15:44;;;;;;;31.60;19.17;;;;;;;15.32;100.00;63576.16;5044626;28;20228;-78
2022/09/27 07:18:11;;;;;;;27.60;20.10;;;;;;;14.90;100.00;63532.53;5038807;28;20238;-78
2022/09/27 07:20:38;;;;;;;28.50;21.45;;;;;;;14.76;100.00;63521.06;5035194;28;20274;-77
2022/09/27 07:23:06;;;;;;;33.80;21.05;;;;;;;14.93;100.00;63538.72;5036712;28;20561;-78
2022/09/27 07:25:34;;;;;;;29.63;22.38;;;;;;;15.13;100.00;63561.03;5034913;28;20387;-79
2022/09/27 07:28:02;;;;;;;31.17;22.50;;;;;;;15.23;100.00;63571.94;5038980;28;20226;-79
2022/09/27 07:30:30;;;;;;;24.40;18.50;;;;;;;14.97;100.00;63545.44;5037746;28;20198;-78
2022/09/27 07:32:58;;;;;;;28.02;20.13;;;;;;;14.91;100.00;63533.56;5036478;28;20545;-77
2022/09/27 07:35:26;;;;;;;26.52;20.10;;;;;;;15.11;100.00;63556.38;5040225;28;20463;-77
2022/09/27 07:37:53;;;;;;;27.90;21.15;;;;;;;15.25;100.00;63576.06;5036590;28;20219;-79
2022/09/27 07:40:20;;;;;;;33.85;22.02;;;;;;;15.47;100.00;63594.34;5037655;28;20205;-78
2022/09/27 07:42:47;;;;;;;26.67;20.48;;;;;;;15.44;100.00;63593.28;5036769;28;20228;-77
2022/09/27 07:45:16;;;;;;;30.30;20.27;;;;;;;15.33;100.00;63581.81;5034652;28;20248;-78
2022/09/27 07:47:44;;;;;;;29.85;22.17;;;;;;;14.86;100.00;63534.00;5039632;28;20249;-78
2022/09/27 07:50:11;;;;;;;30.80;22.50;;;;;;;14.72;100.00;63519.47;5037979;28;20205;-77
2022/09/27 07:52:41;;;;;;;36.28;25.50;;;;;;;14.83;100.00;63530.38;5036701;28;20410;-77
2022/09/27 07:55:09;;;;;;;34.45;23.60;;;;;;;14.65;100.00;63506.56;5036301;28;20218;-77
2022/09/27 07:57:36;;;;;;;38.53;25.17;;;;;;;14.48;100.00;63494.53;5033415;28;20280;-76
2022/09/27 08:00:04;;;;;;;36.40;25.00;;;;;;;14.52;100.00;63495.63;5041223;28;20257;-78
2022/09/27 08:02:31;;;;;;;40.38;26.17;;;;;;;14.35;100.00;63481.03;5038780;28;20226;-77
2022/09/27 08:05:00;;;;;;;33.75;24.55;;;;;;;14.39;100.00;63480.06;5034682;28;20225;-76
2022/09/27 08:07:27;;;;;;;36.42;24.58;;;;;;;14.39;100.00;63482.63;5035751;28;20218;-77
2022/09/27 08:09:53;;;;;;;39.95;24.60;;;;;;;14.44;100.00;63490.41;5035422;28;20228;-75
2022/09/27 08:12:21;;;;;;;39.45;23.83;;;;;;;14.50;100.00;63496.63;5039287;28;20218;-76
2022/09/27 08:14:48;;;;;;;33.60;23.20;;;;;;;14.78;100.00;63525.72;5031555;28;20268;-77
2022/09/27 08:17:16;;;;;;;31.67;22.52;;;;;;;14.93;100.00;63538.19;5038063;28;20273;-78
2022/09/27 08:19:43;;;;;;;31.63;23.00;;;;;;;15.18;100.00;63563.66;5035399;28;20194;-77
2022/09/27 08:22:12;;;;;;;34.80;22.08;;;;;;;15.26;100.00;63579.66;5034684;28;20357;-77
2022/09/27 08:24:39;;;;;;;29.83;22.08;;;;;;;15.28;100.00;63579.19;5039651;28;20205;-78
2022/09/27 08:27:07;;;;;;;29.08;21.92;;;;;;;15.11;100.00;63556.91;5037864;28;20230;-77
2022/09/27 08:29:34;;;;;;;30.85;22.38;;;;;;;15.13;100.00;63561.56;5037648;28;20399;-76
2022/09/27 08:32:01;;;;;;;28.73;21.90;;;;;;;15.29;100.00;63577.66;5041832;28;20220;-76
2022/09/27 08:34:29;;;;;;;29.05;21.73;;;;;;;15.34;100.00;63583.38;5044186;28;20241;-79
2022/09/27 08:36:56;;;;;;;31.67;20.85;;;;;;;15.15;100.00;63563.63;5037329;28;20400;-77
2022/09/27 08:39:24;;;;;;;28.65;22.27;;;;;;;15.12;100.00;63560.50;5042349;28;20201;-78
2022/09/27 08:41:56;;;;;;;30.23;21.80;;;;;;;15.33;100.00;63584.91;5041138;28;20217;-77
2022/09/27 08:44:32;;;;;;;28.77;21.60;;;;;;;15.48;100.00;63594.88;5043807;28;20231;-77
2022/09/27 08:47:06;;;;;;;30.33;22.20;;;;;;;15.36;100.00;63584.94;5040992;28;20209;-78
2022/09/27 08:49:39;;;;;;;27.42;20.95;;;;;;;15.56;100.00;63606.28;5043160;28;20517;-76
2022/09/27 08:52:13;;;;;;;30.23;22.02;;;;;;;15.76;100.00;63621.41;5043399;28;20217;-79
2022/09/27 08:54:41;;;;;;;24.02;17.48;;;;;;;15.78;100.00;63629.13;5040879;28;20251;-78
2022/09/27 08:57:11;;;;;;;21.80;17.45;;;;;;;15.93;100.00;63644.19;5042752;28;20224;-78
2022/09/27 08:59:41;;;;;;;20.60;18.05;;;;;;;15.79;100.00;63632.75;5040491;28;20203;-78
2022/09/27 09:02:17;;;;;;;20.75;17.63;;;;;;;15.98;100.00;63649.94;5043350;28;20395;-77
2022/09/27 09:04:47;;;;;;;22.63;17.65;;;;;;;16.28;100.00;63682.66;5041205;28;20192;-77
2022/09/27 09:07:42;;;;;;;18.80;15.95;;;;;;;16.43;100.00;63698.78;5039113;28;20240;-78
2022/09/27 09:13:22;;;;;;;19.13;15.73;;;;;;;16.70;100.00;63721.25;5037532;28;20240;-78
2022/09/27 09:15:59;;;;;;;18.42;16.17;;;;;;;16.79;100.00;63733.19;5040318;28;20209;-77
2022/09/27 09:18:39;;;;;;;19.88;16.20;;;;;;;16.78;100.00;63730.09;5043055;28;20217;-79
2022/09/27 09:21:11;;;;;;;19.83;16.45;;;;;;;16.51;100.00;63702.00;5040616;28;20455;-80
2022/09/27 09:23:59;;;;;;;20.30;17.13;;;;;;;16.39;100.00;63689.50;5041314;28;20217;-77
2022/09/27 09:26:34;;;;;;;20.48;17.30;;;;;;;16.49;100.00;63699.91;5035550;28;20208;-78
2022/09/27 09:29:16;;;;;;;19.25;15.90;;;;;;;16.34;100.00;63686.34;5042069;28;20410;-78
2022/09/27 09:31:51;;;;;;;21.17;17.40;;;;;;;16.63;100.00;63722.19;5048885;28;20209;-78
2022/09/27 09:34:22;;;;;;;23.65;19.20;;;;;;;16.94;100.00;63749.31;5047510;28;20532;-78
2022/09/27 09:36:55;;;;;;;25.65;19.90;;;;;;;16.53;100.00;63709.19;5044855;28;20228;-78
2022/09/27 09:39:27;;;;;;;25.98;20.55;;;;;;;16.07;100.00;63663.91;5046770;28;20205;-78
2022/09/27 09:42:06;;;;;;;29.08;22.27;;;;;;;16.13;100.00;63662.44;5040131;28;20221;-77
2022/09/27 09:44:44;;;;;;;29.33;19.95;;;;;;;16.39;100.00;63696.69;5039835;28;20265;-79
2022/09/27 09:47:20;;;;;;;27.75;22.35;;;;;;;16.50;100.00;63700.94;5039913;28;21213;-78
2022/09/27 09:49:53;;;;;;;29.15;22.55;;;;;;;16.20;100.00;63677.44;5039602;28;20449;-78
2022/09/27 09:52:23;;;;;;;30.48;22.77;;;;;;;16.24;100.00;63673.38;5041060;28;20217;-79
2022/09/27 09:54:56;;;;;;;29.17;24.30;;;;;;;16.37;100.00;63689.97;5038779;28;20244;-78
2022/09/27 09:57:29;;;;;;;32.90;24.00;;;;;;;16.07;100.00;63663.91;5035447;28;20222;-78
2022/09/27 10:00:00;;;;;;;32.97;22.80;;;;;;;16.14;100.00;63666.56;5036566;28;20256;-79
2022/09/27 10:02:32;;;;;;;33.90;22.92;;;;;;;16.61;100.00;63714.97;5038308;28;20229;-76
2022/09/27 10:04:59;;;;;;;32.58;22.65;;;;;;;17.04;100.00;63756.63;5043127;28;20198;-79
2022/09/27 10:07:28;;;;;;;24.95;21.23;;;;;;;17.27;100.00;63781.06;5041415;28;20268;-79
2022/09/27 10:09:59;;;;;;;26.27;19.20;;;;;;;17.81;100.00;63839.38;5045013;28;20193;-80
2022/09/27 10:12:29;;;;;;;20.33;17.10;;;;;;;18.03;100.00;63864.34;5029253;28;20222;-79
2022/09/27 10:14:58;;;;;;;18.00;14.45;;;;;;;18.17;100.00;63871.72;5038899;28;20245;-76
2022/09/27 10:17:33;;;;;;;16.35;14.23;;;;;;;18.00;100.00;63856.59;5033218;28;20416;-80
2022/09/27 10:20:03;;;;;;;16.40;14.68;;;;;;;17.25;100.00;63781.56;5040020;28;20188;-77
2022/09/27 10:22:36;;;;;;;17.40;13.35;;;;;;;17.01;100.00;63758.66;5034639;28;20297;-78
2022/09/27 10:25:06;;;;;;;16.02;14.35;;;;;;;17.19;100.00;63772.22;5041435;28;20251;-79
2022/09/27 10:27:42;;;;;;;20.10;14.95;;;;;;;17.55;100.00;63809.22;5031505;28;20201;-76
2022/09/27 10:30:23;;;;;;;16.23;13.93;;;;;;;17.97;100.00;63860.66;5039355;28;20201;-80
2022/09/27 10:32:53;;;;;;;18.45;13.15;;;;;;;18.57;100.00;63920.63;5034971;28;20221;-77
2022/09/27 10:35:36;;;;;;;14.98;13.48;;;;;;;19.02;100.00;63967.53;5035328;28;20240;-77
2022/09/27 10:38:24;;;;;;;13.82;11.65;;;;;;;19.48;100.00;64012.94;5033553;28;20260;-78
2022/09/27 10:40:52;;;;;;;11.88;10.77;;;;;;;19.39;100.00;64005.63;5037631;28;20269;-79
2022/09/27 10:43:28;;;;;;;12.88;11.68;;;;;;;19.24;100.00;63985.31;5035811;28;20471;-78
2022/09/27 10:46:11;;;;;;;13.35;11.95;;;;;;;19.40;100.00;64004.06;5037679;28;20197;-78
2022/09/27 10:48:40;;;;;;;14.90;11.75;;;;;;;19.42;100.00;64006.69;5037196;28;20309;-77
2022/09/27 10:51:21;;;;;;;11.98;9.85;;;;;;;19.74;100.00;64039.56;5043234;28;20244;-79
2022/09/27 10:53:48;;;;;;;12.18;10.93;;;;;;;19.83;100.00;64051.50;5036701;28;20225;-77
2022/09/27 10:56:23;;;;;;;10.90;9.80;;;;;;;19.77;100.00;64042.16;5045570;28;20532;-80
2022/09/27 10:58:52;;;;;;;10.38;9.38;;;;;;;19.83;100.00;64048.41;5038571;28;20221;-77
2022/09/27 11:01:20;;;;;;;11.70;10.50;;;;;;;19.96;100.00;64061.97;5044135;28;20538;-79
2022/09/27 11:03:49;;;;;;;12.20;9.63;;;;;;;19.96;100.00;64061.97;5038456;28;20530;-78
2022/09/27 11:06:27;;;;;;;9.70;8.68;;;;;;;20.06;100.00;64070.34;5039518;28;20236;-78
2022/09/27 11:08:56;;;;;;;10.68;9.57;;;;;;;19.96;100.00;64064.56;5032958;28;20233;-78
2022/09/27 11:11:25;;;;;;;10.68;9.68;;;;;;;20.15;100.00;64079.72;5037299;28;20407;-80
2022/09/27 11:14:03;;;;;;;10.27;9.15;;;;;;;20.46;100.00;64114.69;5033056;28;20245;-79
2022/09/27 11:16:48;;;;;;;9.20;8.40;;;;;;;20.63;100.00;64137.09;5039666;28;20258;-79
2022/09/27 11:19:46;;;;;;;9.32;8.52;;;;;;;20.30;100.00;64097.47;5041772;28;20202;-78
2022/09/27 11:22:34;;;;;;;12.95;7.93;;;;;;;20.28;100.00;64093.31;5043923;28;20229;-79
2022/09/27 11:25:15;;;;;;;9.02;8.15;;;;;;;20.29;100.00;64096.44;5040890;28;20205;-78
2022/09/27 11:27:54;;;;;;;9.30;8.43;;;;;;;20.47;100.00;64110.03;5039658;28;20221;-79
2022/09/27 11:30:23;;;;;;;10.23;9.05;;;;;;;20.20;100.00;64084.44;5034191;28;20217;-79
2022/09/27 11:33:17;;;;;;;9.27;8.48;;;;;;;20.16;100.00;64088.03;5036458;28;20562;-80
2022/09/27 11:35:58;;;;;;;9.70;8.15;;;;;;;20.20;100.00;64087.03;5038043;28;20248;-78